sensor_id;sensor_type;location;lat;lon;timestamp;temperature;humidity
16315;DHT22;8266;52.150;4.768;2022-07-23T00:00:15;19.80;99.90
16315;DHT22;8266;52.150;4.768;2022-07-23T00:02:43;19.80;99.90
16315;DHT22;8266;52.150;4.768;2022-07-23T00:05:10;19.80;99.90
16315;DHT22;8266;52.150;4.768;2022-07-23T00:07:37;19.70;99.90
16315;DHT22;8266;52.150;4.768;2022-07-23T00:10:05;19.70;99.90
16315;DHT22;8266;52.150;4.768;2022-07-23T00:12:34;19.60;99.90
16315;DHT22;8266;52.150;4.768;2022-07-23T00:15:04;19.60;99.90
16315;DHT22;8266;52.150;4.768;2022-07-23T00:17:32;19.60;99.90
16315;DHT22;8266;52.150;4.768;2022-07-23T00:19:59;19.60;99.90
16315;DHT22;8266;52.150;4.768;2022-07-23T00:22:26;19.50;99.90
16315;DHT22;8266;52.150;4.768;2022-07-23T00:24:57;19.50;99.90
16315;DHT22;8266;52.150;4.768;2022-07-23T00:27:24;19.50;99.90
16315;DHT22;8266;52.150;4.768;2022-07-23T00:29:53;19.50;99.90
16315;DHT22;8266;52.150;4.768;2022-07-23T00:32:22;19.50;99.90
16315;DHT22;8266;52.150;4.768;2022-07-23T00:34:49;19.40;99.90
16315;DHT22;8266;52.150;4.768;2022-07-23T00:37:16;19.40;99.90
16315;DHT22;8266;52.150;4.768;2022-07-23T00:39:43;19.40;99.90
16315;DHT22;8266;52.150;4.768;2022-07-23T00:42:10;19.40;99.90
16315;DHT22;8266;52.150;4.768;2022-07-23T00:44:37;19.30;99.90
16315;DHT22;8266;52.150;4.768;2022-07-23T00:47:06;19.30;99.90
16315;DHT22;8266;52.150;4.768;2022-07-23T00:49:33;19.30;99.90
16315;DHT22;8266;52.150;4.768;2022-07-23T00:52:02;19.30;99.90
16315;DHT22;8266;52.150;4.768;2022-07-23T00:54:29;19.20;99.90
16315;DHT22;8266;52.150;4.768;2022-07-23T00:57:00;19.20;99.90
16315;DHT22;8266;52.150;4.768;2022-07-23T00:59:28;19.10;99.90
16315;DHT22;8266;52.150;4.768;2022-07-23T01:01:57;19.10;99.90
16315;DHT22;8266;52.150;4.768;2022-07-23T01:04:28;19.00;99.90
16315;DHT22;8266;52.150;4.768;2022-07-23T01:07:22;19.00;99.90
16315;DHT22;8266;52.150;4.768;2022-07-23T01:09:59;19.00;99.90
16315;DHT22;8266;52.150;4.768;2022-07-23T01:12:30;18.90;99.90
16315;DHT22;8266;52.150;4.768;2022-07-23T01:15:01;18.90;99.90
16315;DHT22;8266;52.150;4.768;2022-07-23T01:17:40;18.90;99.90
16315;DHT22;8266;52.150;4.768;2022-07-23T01:20:11;18.90;99.90
16315;DHT22;8266;52.150;4.768;2022-07-23T01:22:40;18.90;99.90
16315;DHT22;8266;52.150;4.768;2022-07-23T01:25:08;18.90;99.90
16315;DHT22;8266;52.150;4.768;2022-07-23T01:27:35;18.90;99.90
16315;DHT22;8266;52.150;4.768;2022-07-23T01:30:03;18.80;99.90
16315;DHT22;8266;52.150;4.768;2022-07-23T01:32:30;18.80;99.90
16315;DHT22;8266;52.150;4.768;2022-07-23T01:34:57;18.80;99.90
16315;DHT22;8266;52.150;4.768;2022-07-23T01:37:27;18.80;99.90
16315;DHT22;8266;52.150;4.768;2022-07-23T01:39:55;18.80;99.90
16315;DHT22;8266;52.150;4.768;2022-07-23T01:42:22;18.70;99.90
16315;DHT22;8266;52.150;4.768;2022-07-23T01:44:49;18.70;99.90
16315;DHT22;8266;52.150;4.768;2022-07-23T01:47:17;18.70;99.90
16315;DHT22;8266;52.150;4.768;2022-07-23T01:49:44;18.60;99.90
16315;DHT22;8266;52.150;4.768;2022-07-23T01:52:11;18.60;99.90
16315;DHT22;8266;52.150;4.768;2022-07-23T01:54:39;18.60;99.90
16315;DHT22;8266;52.150;4.768;2022-07-23T01:57:07;18.60;99.90
16315;DHT22;8266;52.150;4.768;2022-07-23T01:59:35;18.60;99.90
16315;DHT22;8266;52.150;4.768;2022-07-23T02:02:02;18.60;99.90
16315;DHT22;8266;52.150;4.768;2022-07-23T02:04:31;18.60;99.90
16315;DHT22;8266;52.150;4.768;2022-07-23T02:07:00;18.60;99.90
16315;DHT22;8266;52.150;4.768;2022-07-23T02:09:29;18.60;99.90
16315;DHT22;8266;52.150;4.768;2022-07-23T02:11:58;18.60;99.90
16315;DHT22;8266;52.150;4.768;2022-07-23T02:14:27;18.60;99.90
16315;DHT22;8266;52.150;4.768;2022-07-23T02:16:55;18.60;99.90
16315;DHT22;8266;52.150;4.768;2022-07-23T02:19:22;18.60;99.90
16315;DHT22;8266;52.150;4.768;2022-07-23T02:21:50;18.60;99.90
16315;DHT22;8266;52.150;4.768;2022-07-23T02:24:17;18.50;99.90
16315;DHT22;8266;52.150;4.768;2022-07-23T02:26:45;18.50;99.90
16315;DHT22;8266;52.150;4.768;2022-07-23T02:29:13;18.60;99.90
16315;DHT22;8266;52.150;4.768;2022-07-23T02:31:43;18.50;99.90
16315;DHT22;8266;52.150;4.768;2022-07-23T02:34:11;18.50;99.90
16315;DHT22;8266;52.150;4.768;2022-07-23T02:36:38;18.50;99.90
16315;DHT22;8266;52.150;4.768;2022-07-23T02:39:06;18.40;99.90
16315;DHT22;8266;52.150;4.768;2022-07-23T02:41:38;18.40;99.90
16315;DHT22;8266;52.150;4.768;2022-07-23T02:44:06;18.40;99.90
16315;DHT22;8266;52.150;4.768;2022-07-23T02:46:32;18.40;99.90
16315;DHT22;8266;52.150;4.768;2022-07-23T02:49:01;18.30;99.90
16315;DHT22;8266;52.150;4.768;2022-07-23T02:51:30;18.30;99.90
16315;DHT22;8266;52.150;4.768;2022-07-23T02:53:57;18.30;99.90
16315;DHT22;8266;52.150;4.768;2022-07-23T02:56:24;18.30;99.90
16315;DHT22;8266;52.150;4.768;2022-07-23T02:58:51;18.30;99.90
16315;DHT22;8266;52.150;4.768;2022-07-23T03:01:18;18.30;99.90
16315;DHT22;8266;52.150;4.768;2022-07-23T03:03:45;18.30;99.90
16315;DHT22;8266;52.150;4.768;2022-07-23T03:06:13;18.20;99.90
16315;DHT22;8266;52.150;4.768;2022-07-23T03:08:40;18.20;99.90
16315;DHT22;8266;52.150;4.768;2022-07-23T03:11:09;18.20;99.90
16315;DHT22;8266;52.150;4.768;2022-07-23T03:13:37;18.10;99.90
16315;DHT22;8266;52.150;4.768;2022-07-23T03:16:05;18.20;99.90
16315;DHT22;8266;52.150;4.768;2022-07-23T03:18:32;18.10;99.90
16315;DHT22;8266;52.150;4.768;2022-07-23T03:21:00;18.10;99.90
16315;DHT22;8266;52.150;4.768;2022-07-23T03:23:28;18.10;99.90
16315;DHT22;8266;52.150;4.768;2022-07-23T03:25:55;18.10;99.90
16315;DHT22;8266;52.150;4.768;2022-07-23T03:28:22;18.10;99.90
16315;DHT22;8266;52.150;4.768;2022-07-23T03:30:50;18.10;99.90
16315;DHT22;8266;52.150;4.768;2022-07-23T03:33:18;18.10;99.90
16315;DHT22;8266;52.150;4.768;2022-07-23T03:35:46;18.10;99.90
16315;DHT22;8266;52.150;4.768;2022-07-23T03:38:14;18.10;99.90
16315;DHT22;8266;52.150;4.768;2022-07-23T03:40:42;18.10;99.90
16315;DHT22;8266;52.150;4.768;2022-07-23T03:43:09;18.10;99.90
16315;DHT22;8266;52.150;4.768;2022-07-23T03:45:36;18.10;99.90
16315;DHT22;8266;52.150;4.768;2022-07-23T03:48:05;18.20;99.90
16315;DHT22;8266;52.150;4.768;2022-07-23T03:50:32;18.20;99.90
16315;DHT22;8266;52.150;4.768;2022-07-23T03:53:00;18.20;99.90
16315;DHT22;8266;52.150;4.768;2022-07-23T03:55:27;18.20;99.90
16315;DHT22;8266;52.150;4.768;2022-07-23T03:57:55;18.20;99.90
16315;DHT22;8266;52.150;4.768;2022-07-23T04:00:22;18.20;99.90
16315;DHT22;8266;52.150;4.768;2022-07-23T04:02:49;18.20;99.90
16315;DHT22;8266;52.150;4.768;2022-07-23T04:05:16;18.20;99.90
16315;DHT22;8266;52.150;4.768;2022-07-23T04:07:44;18.20;99.90
16315;DHT22;8266;52.150;4.768;2022-07-23T04:10:11;18.20;99.90
16315;DHT22;8266;52.150;4.768;2022-07-23T04:12:37;18.20;99.90
16315;DHT22;8266;52.150;4.768;2022-07-23T04:15:07;18.20;99.90
16315;DHT22;8266;52.150;4.768;2022-07-23T04:17:35;18.30;99.90
16315;DHT22;8266;52.150;4.768;2022-07-23T04:20:02;18.20;99.90
16315;DHT22;8266;52.150;4.768;2022-07-23T04:22:29;18.20;99.90
16315;DHT22;8266;52.150;4.768;2022-07-23T04:24:56;18.20;99.90
16315;DHT22;8266;52.150;4.768;2022-07-23T04:27:23;18.10;99.90
16315;DHT22;8266;52.150;4.768;2022-07-23T04:29:52;18.20;99.90
16315;DHT22;8266;52.150;4.768;2022-07-23T04:32:21;18.20;99.90
16315;DHT22;8266;52.150;4.768;2022-07-23T04:34:48;18.20;99.90
16315;DHT22;8266;52.150;4.768;2022-07-23T04:37:15;18.20;99.90
16315;DHT22;8266;52.150;4.768;2022-07-23T04:39:42;18.20;99.90
16315;DHT22;8266;52.150;4.768;2022-07-23T04:42:10;18.20;99.90
16315;DHT22;8266;52.150;4.768;2022-07-23T04:44:37;18.30;99.90
16315;DHT22;8266;52.150;4.768;2022-07-23T04:47:05;18.20;99.90
16315;DHT22;8266;52.150;4.768;2022-07-23T04:49:35;18.20;99.90
16315;DHT22;8266;52.150;4.768;2022-07-23T04:52:02;18.30;99.90
16315;DHT22;8266;52.150;4.768;2022-07-23T04:54:29;18.30;99.90
16315;DHT22;8266;52.150;4.768;2022-07-23T04:56:56;18.30;99.90
16315;DHT22;8266;52.150;4.768;2022-07-23T04:59:23;18.30;99.90
16315;DHT22;8266;52.150;4.768;2022-07-23T05:01:50;18.40;99.90
16315;DHT22;8266;52.150;4.768;2022-07-23T05:04:17;18.40;99.90
16315;DHT22;8266;52.150;4.768;2022-07-23T05:06:46;18.40;99.90
16315;DHT22;8266;52.150;4.768;2022-07-23T05:09:15;18.50;99.90
16315;DHT22;8266;52.150;4.768;2022-07-23T05:11:42;18.50;99.90
16315;DHT22;8266;52.150;4.768;2022-07-23T05:14:09;18.60;99.90
16315;DHT22;8266;52.150;4.768;2022-07-23T05:16:37;18.60;99.90
16315;DHT22;8266;52.150;4.768;2022-07-23T05:19:05;18.60;99.90
16315;DHT22;8266;52.150;4.768;2022-07-23T05:21:32;18.60;99.90
16315;DHT22;8266;52.150;4.768;2022-07-23T05:24:00;18.70;99.90
16315;DHT22;8266;52.150;4.768;2022-07-23T05:26:27;18.70;99.90
16315;DHT22;8266;52.150;4.768;2022-07-23T05:28:54;18.70;99.90
16315;DHT22;8266;52.150;4.768;2022-07-23T05:31:21;18.70;99.90
16315;DHT22;8266;52.150;4.768;2022-07-23T05:33:48;18.70;99.90
16315;DHT22;8266;52.150;4.768;2022-07-23T05:36:15;18.80;99.90
16315;DHT22;8266;52.150;4.768;2022-07-23T05:38:42;18.70;99.90
16315;DHT22;8266;52.150;4.768;2022-07-23T05:41:11;18.80;99.90
16315;DHT22;8266;52.150;4.768;2022-07-23T05:43:43;18.70;99.90
16315;DHT22;8266;52.150;4.768;2022-07-23T05:46:10;18.80;99.90
16315;DHT22;8266;52.150;4.768;2022-07-23T05:48:37;18.80;99.90
16315;DHT22;8266;52.150;4.768;2022-07-23T05:51:04;18.80;99.90
16315;DHT22;8266;52.150;4.768;2022-07-23T05:53:32;18.80;99.90
16315;DHT22;8266;52.150;4.768;2022-07-23T05:55:59;18.80;99.90
16315;DHT22;8266;52.150;4.768;2022-07-23T05:58:28;18.90;99.90
16315;DHT22;8266;52.150;4.768;2022-07-23T06:00:55;18.90;99.90
16315;DHT22;8266;52.150;4.768;2022-07-23T06:03:21;18.90;99.90
16315;DHT22;8266;52.150;4.768;2022-07-23T06:05:48;19.00;99.90
16315;DHT22;8266;52.150;4.768;2022-07-23T06:08:15;18.90;99.90
16315;DHT22;8266;52.150;4.768;2022-07-23T06:10:42;19.00;99.90
16315;DHT22;8266;52.150;4.768;2022-07-23T06:13:09;19.00;99.90
16315;DHT22;8266;52.150;4.768;2022-07-23T06:15:37;19.10;99.90
16315;DHT22;8266;52.150;4.768;2022-07-23T06:18:04;19.10;99.90
16315;DHT22;8266;52.150;4.768;2022-07-23T06:20:31;19.20;99.90
16315;DHT22;8266;52.150;4.768;2022-07-23T06:22:58;19.20;99.90
16315;DHT22;8266;52.150;4.768;2022-07-23T06:25:25;19.20;99.90
16315;DHT22;8266;52.150;4.768;2022-07-23T06:27:52;19.40;99.90
16315;DHT22;8266;52.150;4.768;2022-07-23T06:30:19;19.40;99.90
16315;DHT22;8266;52.150;4.768;2022-07-23T06:32:48;19.50;99.90
16315;DHT22;8266;52.150;4.768;2022-07-23T06:35:16;19.60;99.90
16315;DHT22;8266;52.150;4.768;2022-07-23T06:37:44;19.70;99.90
16315;DHT22;8266;52.150;4.768;2022-07-23T06:40:11;19.90;99.90
16315;DHT22;8266;52.150;4.768;2022-07-23T06:42:38;20.00;99.90
16315;DHT22;8266;52.150;4.768;2022-07-23T06:45:06;20.20;99.90
16315;DHT22;8266;52.150;4.768;2022-07-23T06:47:34;20.30;99.90
16315;DHT22;8266;52.150;4.768;2022-07-23T06:50:03;20.50;99.90
16315;DHT22;8266;52.150;4.768;2022-07-23T06:52:29;20.60;99.90
16315;DHT22;8266;52.150;4.768;2022-07-23T06:54:56;20.80;99.90
16315;DHT22;8266;52.150;4.768;2022-07-23T06:57:23;20.90;99.90
16315;DHT22;8266;52.150;4.768;2022-07-23T06:59:51;21.10;99.90
16315;DHT22;8266;52.150;4.768;2022-07-23T07:02:18;21.20;99.90
16315;DHT22;8266;52.150;4.768;2022-07-23T07:04:45;21.50;99.90
16315;DHT22;8266;52.150;4.768;2022-07-23T07:07:13;21.60;99.90
16315;DHT22;8266;52.150;4.768;2022-07-23T07:09:40;21.80;99.90
16315;DHT22;8266;52.150;4.768;2022-07-23T07:12:08;22.00;99.90
16315;DHT22;8266;52.150;4.768;2022-07-23T07:14:35;22.20;99.90
16315;DHT22;8266;52.150;4.768;2022-07-23T07:17:02;22.50;99.90
16315;DHT22;8266;52.150;4.768;2022-07-23T07:19:29;22.60;99.90
16315;DHT22;8266;52.150;4.768;2022-07-23T07:21:56;22.90;99.90
16315;DHT22;8266;52.150;4.768;2022-07-23T07:24:25;23.10;99.90
16315;DHT22;8266;52.150;4.768;2022-07-23T07:26:52;23.30;99.90
16315;DHT22;8266;52.150;4.768;2022-07-23T07:29:19;23.50;99.90
16315;DHT22;8266;52.150;4.768;2022-07-23T07:31:46;23.70;99.90
16315;DHT22;8266;52.150;4.768;2022-07-23T07:34:13;24.00;99.90
16315;DHT22;8266;52.150;4.768;2022-07-23T07:36:40;24.20;99.90
16315;DHT22;8266;52.150;4.768;2022-07-23T07:39:08;24.40;99.90
16315;DHT22;8266;52.150;4.768;2022-07-23T07:41:38;24.50;99.90
16315;DHT22;8266;52.150;4.768;2022-07-23T07:44:05;24.70;99.90
16315;DHT22;8266;52.150;4.768;2022-07-23T07:46:32;24.80;99.90
16315;DHT22;8266;52.150;4.768;2022-07-23T07:48:59;24.90;99.90
16315;DHT22;8266;52.150;4.768;2022-07-23T07:51:26;25.10;99.90
16315;DHT22;8266;52.150;4.768;2022-07-23T07:53:54;25.30;99.90
16315;DHT22;8266;52.150;4.768;2022-07-23T07:56:21;25.50;99.90
16315;DHT22;8266;52.150;4.768;2022-07-23T07:58:49;25.50;99.90
16315;DHT22;8266;52.150;4.768;2022-07-23T08:01:21;25.60;99.90
16315;DHT22;8266;52.150;4.768;2022-07-23T08:03:48;25.70;99.90
16315;DHT22;8266;52.150;4.768;2022-07-23T08:06:15;25.70;99.90
16315;DHT22;8266;52.150;4.768;2022-07-23T08:09:08;25.80;99.90
16315;DHT22;8266;52.150;4.768;2022-07-23T08:11:35;25.90;99.90
16315;DHT22;8266;52.150;4.768;2022-07-23T08:14:03;25.90;99.90
16315;DHT22;8266;52.150;4.768;2022-07-23T08:16:32;25.90;99.90
16315;DHT22;8266;52.150;4.768;2022-07-23T08:18:59;26.00;99.90
16315;DHT22;8266;52.150;4.768;2022-07-23T08:21:32;25.90;99.90
16315;DHT22;8266;52.150;4.768;2022-07-23T08:24:01;25.90;99.90
16315;DHT22;8266;52.150;4.768;2022-07-23T08:26:28;25.80;99.90
16315;DHT22;8266;52.150;4.768;2022-07-23T08:29:00;25.80;99.90
16315;DHT22;8266;52.150;4.768;2022-07-23T08:31:31;25.70;99.90
16315;DHT22;8266;52.150;4.768;2022-07-23T08:33:59;25.60;99.90
16315;DHT22;8266;52.150;4.768;2022-07-23T08:36:29;25.60;99.90
16315;DHT22;8266;52.150;4.768;2022-07-23T08:39:00;25.60;99.90
16315;DHT22;8266;52.150;4.768;2022-07-23T08:41:31;25.60;99.90
16315;DHT22;8266;52.150;4.768;2022-07-23T08:43:59;25.60;99.90
16315;DHT22;8266;52.150;4.768;2022-07-23T08:46:28;25.70;99.90
16315;DHT22;8266;52.150;4.768;2022-07-23T08:48:56;25.80;99.90
16315;DHT22;8266;52.150;4.768;2022-07-23T08:51:26;25.90;99.90
16315;DHT22;8266;52.150;4.768;2022-07-23T08:53:56;26.00;99.90
16315;DHT22;8266;52.150;4.768;2022-07-23T08:56:24;26.00;99.90
16315;DHT22;8266;52.150;4.768;2022-07-23T08:58:53;26.10;99.90
16315;DHT22;8266;52.150;4.768;2022-07-23T09:01:20;26.20;99.90
16315;DHT22;8266;52.150;4.768;2022-07-23T09:03:49;26.30;99.90
16315;DHT22;8266;52.150;4.768;2022-07-23T09:06:16;26.30;99.90
16315;DHT22;8266;52.150;4.768;2022-07-23T09:08:43;26.40;99.90
16315;DHT22;8266;52.150;4.768;2022-07-23T09:11:13;26.50;99.90
16315;DHT22;8266;52.150;4.768;2022-07-23T09:13:46;26.50;99.90
16315;DHT22;8266;52.150;4.768;2022-07-23T09:16:15;26.70;99.90
16315;DHT22;8266;52.150;4.768;2022-07-23T09:18:45;26.80;99.90
16315;DHT22;8266;52.150;4.768;2022-07-23T09:21:17;26.80;99.90
16315;DHT22;8266;52.150;4.768;2022-07-23T09:23:47;26.90;99.90
16315;DHT22;8266;52.150;4.768;2022-07-23T09:26:32;26.90;99.90
16315;DHT22;8266;52.150;4.768;2022-07-23T09:29:03;27.00;99.90
16315;DHT22;8266;52.150;4.768;2022-07-23T09:31:33;27.00;99.90
16315;DHT22;8266;52.150;4.768;2022-07-23T09:34:08;27.10;99.90
16315;DHT22;8266;52.150;4.768;2022-07-23T09:36:37;27.20;99.90
16315;DHT22;8266;52.150;4.768;2022-07-23T09:39:08;27.30;99.90
16315;DHT22;8266;52.150;4.768;2022-07-23T09:41:41;27.40;99.90
16315;DHT22;8266;52.150;4.768;2022-07-23T09:44:11;27.50;99.90
16315;DHT22;8266;52.150;4.768;2022-07-23T09:46:39;27.50;99.90
16315;DHT22;8266;52.150;4.768;2022-07-23T09:49:15;27.60;99.90
16315;DHT22;8266;52.150;4.768;2022-07-23T09:51:50;27.60;99.90
16315;DHT22;8266;52.150;4.768;2022-07-23T09:54:26;27.70;99.90
16315;DHT22;8266;52.150;4.768;2022-07-23T09:56:58;27.70;99.90
16315;DHT22;8266;52.150;4.768;2022-07-23T09:59:31;27.80;99.90
16315;DHT22;8266;52.150;4.768;2022-07-23T10:01:59;27.80;99.90
16315;DHT22;8266;52.150;4.768;2022-07-23T10:04:30;27.90;99.90
16315;DHT22;8266;52.150;4.768;2022-07-23T10:07:00;27.90;99.90
16315;DHT22;8266;52.150;4.768;2022-07-23T10:09:29;28.00;99.90
16315;DHT22;8266;52.150;4.768;2022-07-23T10:11:58;28.20;99.90
16315;DHT22;8266;52.150;4.768;2022-07-23T10:14:30;28.30;99.90
16315;DHT22;8266;52.150;4.768;2022-07-23T10:16:58;28.40;99.90
16315;DHT22;8266;52.150;4.768;2022-07-23T10:19:25;28.50;99.90
16315;DHT22;8266;52.150;4.768;2022-07-23T10:21:57;28.60;99.90
16315;DHT22;8266;52.150;4.768;2022-07-23T10:24:48;28.80;99.90
16315;DHT22;8266;52.150;4.768;2022-07-23T10:30:22;29.20;99.90
16315;DHT22;8266;52.150;4.768;2022-07-23T10:33:00;29.30;99.90
16315;DHT22;8266;52.150;4.768;2022-07-23T10:35:38;29.50;99.90
16315;DHT22;8266;52.150;4.768;2022-07-23T10:38:11;29.70;99.90
16315;DHT22;8266;52.150;4.768;2022-07-23T10:40:53;29.80;99.90
16315;DHT22;8266;52.150;4.768;2022-07-23T10:43:21;29.80;99.90
16315;DHT22;8266;52.150;4.768;2022-07-23T10:45:48;29.80;99.90
16315;DHT22;8266;52.150;4.768;2022-07-23T10:48:17;29.80;99.90
16315;DHT22;8266;52.150;4.768;2022-07-23T10:51:06;29.90;99.90
16315;DHT22;8266;52.150;4.768;2022-07-23T10:53:54;29.90;99.00
16315;DHT22;8266;52.150;4.768;2022-07-23T10:56:50;29.90;99.90
16315;DHT22;8266;52.150;4.768;2022-07-23T10:59:17;29.90;99.90
16315;DHT22;8266;52.150;4.768;2022-07-23T11:01:44;30.00;99.90
16315;DHT22;8266;52.150;4.768;2022-07-23T11:04:11;30.10;99.90
16315;DHT22;8266;52.150;4.768;2022-07-23T11:07:06;30.10;99.90
16315;DHT22;8266;52.150;4.768;2022-07-23T11:09:39;30.20;98.90
16315;DHT22;8266;52.150;4.768;2022-07-23T11:12:35;30.20;99.30
16315;DHT22;8266;52.150;4.768;2022-07-23T11:15:05;30.20;99.70
16315;DHT22;8266;52.150;4.768;2022-07-23T11:17:35;30.30;99.90
16315;DHT22;8266;52.150;4.768;2022-07-23T11:20:20;30.30;99.70
16315;DHT22;8266;52.150;4.768;2022-07-23T11:22:52;30.40;99.20
16315;DHT22;8266;52.150;4.768;2022-07-23T11:25:34;30.40;99.10
16315;DHT22;8266;52.150;4.768;2022-07-23T11:28:14;30.50;99.50
16315;DHT22;8266;52.150;4.768;2022-07-23T11:30:43;30.50;99.70
16315;DHT22;8266;52.150;4.768;2022-07-23T11:33:19;30.50;99.70
16315;DHT22;8266;52.150;4.768;2022-07-23T11:35:48;30.50;99.60
16315;DHT22;8266;52.150;4.768;2022-07-23T11:38:17;30.60;99.60
16315;DHT22;8266;52.150;4.768;2022-07-23T11:40:46;30.60;99.40
16315;DHT22;8266;52.150;4.768;2022-07-23T11:43:15;30.60;99.80
16315;DHT22;8266;52.150;4.768;2022-07-23T11:45:48;30.60;98.50
16315;DHT22;8266;52.150;4.768;2022-07-23T11:48:18;30.60;98.70
16315;DHT22;8266;52.150;4.768;2022-07-23T11:50:45;30.40;97.90
16315;DHT22;8266;52.150;4.768;2022-07-23T11:53:12;30.40;98.30
16315;DHT22;8266;52.150;4.768;2022-07-23T11:55:40;30.30;97.10
16315;DHT22;8266;52.150;4.768;2022-07-23T11:58:07;30.20;98.20
16315;DHT22;8266;52.150;4.768;2022-07-23T12:00:40;30.10;99.00
16315;DHT22;8266;52.150;4.768;2022-07-23T12:03:10;30.10;98.00
16315;DHT22;8266;52.150;4.768;2022-07-23T12:05:38;30.20;98.80
16315;DHT22;8266;52.150;4.768;2022-07-23T12:08:09;30.20;98.40
16315;DHT22;8266;52.150;4.768;2022-07-23T12:10:39;30.30;99.00
16315;DHT22;8266;52.150;4.768;2022-07-23T12:13:08;30.40;99.00
16315;DHT22;8266;52.150;4.768;2022-07-23T12:15:39;30.50;99.30
16315;DHT22;8266;52.150;4.768;2022-07-23T12:18:08;30.70;98.40
16315;DHT22;8266;52.150;4.768;2022-07-23T12:20:38;30.70;98.50
16315;DHT22;8266;52.150;4.768;2022-07-23T12:23:06;30.80;98.70
16315;DHT22;8266;52.150;4.768;2022-07-23T12:25:37;31.00;98.20
16315;DHT22;8266;52.150;4.768;2022-07-23T12:28:07;31.00;97.40
16315;DHT22;8266;52.150;4.768;2022-07-23T12:30:40;31.10;96.50
16315;DHT22;8266;52.150;4.768;2022-07-23T12:33:10;31.00;96.80
16315;DHT22;8266;52.150;4.768;2022-07-23T12:35:39;31.00;97.20
16315;DHT22;8266;52.150;4.768;2022-07-23T12:38:08;31.00;96.70
16315;DHT22;8266;52.150;4.768;2022-07-23T12:40:44;31.00;96.10
16315;DHT22;8266;52.150;4.768;2022-07-23T12:43:22;31.00;96.00
16315;DHT22;8266;52.150;4.768;2022-07-23T12:46:02;31.00;94.50
16315;DHT22;8266;52.150;4.768;2022-07-23T12:48:54;31.00;96.30
16315;DHT22;8266;52.150;4.768;2022-07-23T12:52:11;31.10;95.60
16315;DHT22;8266;52.150;4.768;2022-07-23T12:54:42;31.00;97.10
16315;DHT22;8266;52.150;4.768;2022-07-23T12:57:09;30.90;96.70
16315;DHT22;8266;52.150;4.768;2022-07-23T12:59:36;30.90;95.00
16315;DHT22;8266;52.150;4.768;2022-07-23T13:02:08;30.80;94.80
16315;DHT22;8266;52.150;4.768;2022-07-23T13:04:36;30.80;93.70
16315;DHT22;8266;52.150;4.768;2022-07-23T13:07:03;30.80;93.50
16315;DHT22;8266;52.150;4.768;2022-07-23T13:09:35;30.80;93.10
16315;DHT22;8266;52.150;4.768;2022-07-23T13:12:03;30.80;91.50
16315;DHT22;8266;52.150;4.768;2022-07-23T13:14:33;30.70;92.10
16315;DHT22;8266;52.150;4.768;2022-07-23T13:17:01;30.60;90.80
16315;DHT22;8266;52.150;4.768;2022-07-23T13:19:38;30.50;92.30
16315;DHT22;8266;52.150;4.768;2022-07-23T13:22:05;30.50;92.60
16315;DHT22;8266;52.150;4.768;2022-07-23T13:24:32;30.50;91.90
16315;DHT22;8266;52.150;4.768;2022-07-23T13:27:04;30.50;92.70
16315;DHT22;8266;52.150;4.768;2022-07-23T13:29:32;30.60;90.40
16315;DHT22;8266;52.150;4.768;2022-07-23T13:31:59;30.60;92.70
16315;DHT22;8266;52.150;4.768;2022-07-23T13:34:34;30.60;92.70
16315;DHT22;8266;52.150;4.768;2022-07-23T13:37:10;30.60;89.90
16315;DHT22;8266;52.150;4.768;2022-07-23T13:39:38;30.50;87.40
16315;DHT22;8266;52.150;4.768;2022-07-23T13:42:06;30.40;90.90
16315;DHT22;8266;52.150;4.768;2022-07-23T13:44:34;30.30;91.50
16315;DHT22;8266;52.150;4.768;2022-07-23T13:47:04;30.30;90.00
16315;DHT22;8266;52.150;4.768;2022-07-23T13:49:35;30.20;89.70
16315;DHT22;8266;52.150;4.768;2022-07-23T13:52:03;30.00;90.80
16315;DHT22;8266;52.150;4.768;2022-07-23T13:54:31;30.00;92.20
16315;DHT22;8266;52.150;4.768;2022-07-23T13:56:59;30.00;92.00
16315;DHT22;8266;52.150;4.768;2022-07-23T13:59:35;30.00;92.40
16315;DHT22;8266;52.150;4.768;2022-07-23T14:02:18;30.10;90.80
16315;DHT22;8266;52.150;4.768;2022-07-23T14:04:58;30.10;90.90
16315;DHT22;8266;52.150;4.768;2022-07-23T14:07:42;30.10;91.00
16315;DHT22;8266;52.150;4.768;2022-07-23T14:10:12;30.10;90.50
16315;DHT22;8266;52.150;4.768;2022-07-23T14:12:51;30.20;93.00
16315;DHT22;8266;52.150;4.768;2022-07-23T14:15:27;30.30;92.50
16315;DHT22;8266;52.150;4.768;2022-07-23T14:18:08;30.30;92.60
16315;DHT22;8266;52.150;4.768;2022-07-23T14:20:37;30.40;93.10
16315;DHT22;8266;52.150;4.768;2022-07-23T14:23:06;30.50;93.00
16315;DHT22;8266;52.150;4.768;2022-07-23T14:25:33;30.60;92.90
16315;DHT22;8266;52.150;4.768;2022-07-23T14:28:03;30.80;92.80
16315;DHT22;8266;52.150;4.768;2022-07-23T14:30:36;30.80;93.40
16315;DHT22;8266;52.150;4.768;2022-07-23T14:33:04;30.90;91.90
16315;DHT22;8266;52.150;4.768;2022-07-23T14:35:31;31.00;91.30
16315;DHT22;8266;52.150;4.768;2022-07-23T14:38:12;31.00;90.80
16315;DHT22;8266;52.150;4.768;2022-07-23T14:40:48;31.10;91.10
16315;DHT22;8266;52.150;4.768;2022-07-23T14:43:15;31.20;90.30
16315;DHT22;8266;52.150;4.768;2022-07-23T14:45:48;31.20;91.50
16315;DHT22;8266;52.150;4.768;2022-07-23T14:48:28;31.10;90.80
16315;DHT22;8266;52.150;4.768;2022-07-23T14:50:59;31.20;90.20
16315;DHT22;8266;52.150;4.768;2022-07-23T14:53:37;31.20;89.60
16315;DHT22;8266;52.150;4.768;2022-07-23T14:56:07;31.30;90.40
16315;DHT22;8266;52.150;4.768;2022-07-23T14:58:38;31.30;90.30
16315;DHT22;8266;52.150;4.768;2022-07-23T15:01:13;31.40;90.50
16315;DHT22;8266;52.150;4.768;2022-07-23T15:04:07;31.40;88.70
16315;DHT22;8266;52.150;4.768;2022-07-23T15:06:34;31.40;90.00
16315;DHT22;8266;52.150;4.768;2022-07-23T15:09:03;31.50;91.30
16315;DHT22;8266;52.150;4.768;2022-07-23T15:11:39;31.60;88.80
16315;DHT22;8266;52.150;4.768;2022-07-23T15:14:07;31.70;88.20
16315;DHT22;8266;52.150;4.768;2022-07-23T15:16:35;31.80;90.20
16315;DHT22;8266;52.150;4.768;2022-07-23T15:19:03;31.80;91.10
16315;DHT22;8266;52.150;4.768;2022-07-23T15:21:41;31.90;90.40
16315;DHT22;8266;52.150;4.768;2022-07-23T15:24:10;31.90;91.30
16315;DHT22;8266;52.150;4.768;2022-07-23T15:26:37;32.00;92.10
16315;DHT22;8266;52.150;4.768;2022-07-23T15:29:06;32.00;91.60
16315;DHT22;8266;52.150;4.768;2022-07-23T15:31:33;32.00;92.50
16315;DHT22;8266;52.150;4.768;2022-07-23T15:34:03;32.10;92.50
16315;DHT22;8266;52.150;4.768;2022-07-23T15:36:35;32.10;92.70
16315;DHT22;8266;52.150;4.768;2022-07-23T15:39:08;32.10;91.30
16315;DHT22;8266;52.150;4.768;2022-07-23T15:41:40;32.20;91.60
16315;DHT22;8266;52.150;4.768;2022-07-23T15:44:11;32.20;92.10
16315;DHT22;8266;52.150;4.768;2022-07-23T15:46:43;32.20;92.50
16315;DHT22;8266;52.150;4.768;2022-07-23T15:49:16;32.30;91.70
16315;DHT22;8266;52.150;4.768;2022-07-23T15:51:44;32.30;92.00
16315;DHT22;8266;52.150;4.768;2022-07-23T15:55:06;32.30;91.90
16315;DHT22;8266;52.150;4.768;2022-07-23T15:57:27;32.20;90.30
16315;DHT22;8266;52.150;4.768;2022-07-23T15:59:55;32.20;90.90
16315;DHT22;8266;52.150;4.768;2022-07-23T16:02:23;32.20;91.40
16315;DHT22;8266;52.150;4.768;2022-07-23T16:04:56;32.10;91.50